JBU1138 KAUS-KBOS
Flight info
| Callsign | JBU1138 |
|---|---|
| Flight time | N/A |
| Altitude | 33000 |
| Route | ILEXY4 ZENZI IAH GUSTI Q22 RBV Q419 JFK ROBUC3 |
| Aircraft | A320/M-SDE3FGHIRWY/LB1 |
Departure
| Time | 2026-05-05 21:59 |
|---|---|
| Airport | Austin Bergstrom International Airport (KAUS) |
Arrival
| Time | N/A |
|---|---|
| Airport | Boston Logan International Airport (KBOS) |
| Time | Latitude | Longitude | Altitude | Speed | Heading |
|---|---|---|---|---|---|
| 2026-05-05 21:36 | 30.20281 | -97.66251 | 528 ft | 0 kts | 249° |
| 2026-05-05 21:51 | 30.20284 | -97.66243 | 527 ft | 4 kts | 249° |
| 2026-05-05 21:52 | 30.20298 | -97.66193 | 527 ft | 4 kts | 281° |
| 2026-05-05 21:52 | 30.20296 | -97.66166 | 527 ft | 4 kts | 261° |
| 2026-05-05 21:52 | 30.20304 | -97.66144 | 527 ft | 4 kts | 194° |
| 2026-05-05 21:53 | 30.20328 | -97.66143 | 527 ft | 3 kts | 178° |
| 2026-05-05 21:53 | 30.20333 | -97.66143 | 527 ft | 0 kts | 178° |
| 2026-05-05 21:54 | 30.20332 | -97.66143 | 527 ft | 0 kts | 178° |
| 2026-05-05 21:55 | 30.20291 | -97.66141 | 527 ft | 13 kts | 178° |
| 2026-05-05 21:55 | 30.20162 | -97.66139 | 527 ft | 21 kts | 178° |
| 2026-05-05 21:55 | 30.20094 | -97.66211 | 527 ft | 16 kts | 266° |
| 2026-05-05 21:55 | 30.20094 | -97.66347 | 527 ft | 17 kts | 264° |
| 2026-05-05 21:56 | 30.20004 | -97.66391 | 527 ft | 16 kts | 179° |
| 2026-05-05 21:56 | 30.19942 | -97.66384 | 527 ft | 8 kts | 153° |
| 2026-05-05 21:56 | 30.19915 | -97.66324 | 527 ft | 10 kts | 90° |
| 2026-05-05 21:56 | 30.19915 | -97.66246 | 527 ft | 10 kts | 90° |
| 2026-05-05 21:57 | 30.19917 | -97.66169 | 527 ft | 10 kts | 88° |
| 2026-05-05 21:57 | 30.19920 | -97.66066 | 527 ft | 19 kts | 88° |
| 2026-05-05 21:57 | 30.19940 | -97.65919 | 526 ft | 19 kts | 31° |
| 2026-05-05 21:57 | 30.20094 | -97.65908 | 527 ft | 25 kts | 0° |
| 2026-05-05 21:58 | 30.20267 | -97.65914 | 527 ft | 25 kts | 356° |
| 2026-05-05 21:58 | 30.20354 | -97.65909 | 527 ft | 10 kts | 27° |
| 2026-05-05 21:58 | 30.20371 | -97.65833 | 529 ft | 10 kts | 87° |
| 2026-05-05 21:58 | 30.20300 | -97.65788 | 528 ft | 25 kts | 179° |
| 2026-05-05 21:59 | 30.19889 | -97.65778 | 525 ft | 91 kts | 179° |
| 2026-05-05 21:59 | 30.19084 | -97.65757 | 531 ft | 140 kts | 179° |
| 2026-05-05 21:59 | 30.17987 | -97.65726 | 702 ft | 167 kts | 179° |
| 2026-05-05 21:59 | 30.16805 | -97.65715 | 1268 ft | 173 kts | 179° |
| 2026-05-05 22:00 | 30.15613 | -97.65424 | 1674 ft | 187 kts | 147° |
| 2026-05-05 22:00 | 30.14878 | -97.64131 | 1878 ft | 207 kts | 101° |
| 2026-05-05 22:00 | 30.15177 | -97.62493 | 2221 ft | 219 kts | 63° |
| 2026-05-05 22:00 | 30.15993 | -97.60926 | 2429 ft | 235 kts | 61° |
| 2026-05-05 22:01 | 30.16569 | -97.59814 | 2524 ft | 251 kts | 61° |
| 2026-05-05 22:01 | 30.17493 | -97.57996 | 2827 ft | 271 kts | 62° |
| 2026-05-05 22:01 | 30.18456 | -97.56078 | 3424 ft | 279 kts | 62° |
| 2026-05-05 22:01 | 30.19754 | -97.53479 | 4352 ft | 284 kts | 63° |
| 2026-05-05 22:02 | 30.20739 | -97.51478 | 5063 ft | 289 kts | 62° |
| 2026-05-05 22:02 | 30.21411 | -97.50107 | 5532 ft | 292 kts | 63° |
| 2026-05-05 22:02 | 30.22406 | -97.48081 | 6230 ft | 295 kts | 62° |
| 2026-05-05 22:02 | 30.23429 | -97.46005 | 6900 ft | 300 kts | 62° |
| 2026-05-05 22:03 | 30.24468 | -97.43892 | 7527 ft | 305 kts | 62° |
| 2026-05-05 22:03 | 30.25521 | -97.41742 | 8106 ft | 309 kts | 62° |
| 2026-05-05 22:03 | 30.26945 | -97.38844 | 8840 ft | 316 kts | 62° |
| 2026-05-05 22:03 | 30.27682 | -97.37341 | 9203 ft | 319 kts | 61° |
| 2026-05-05 22:04 | 30.29142 | -97.34361 | 9936 ft | 324 kts | 61° |
| 2026-05-05 22:04 | 30.29900 | -97.32816 | 10145 ft | 333 kts | 61° |
| 2026-05-05 22:04 | 30.31060 | -97.30443 | 10278 ft | 352 kts | 61° |
| 2026-05-05 22:04 | 30.32293 | -97.27917 | 10402 ft | 369 kts | 61° |
| 2026-05-05 22:05 | 30.33577 | -97.25281 | 10532 ft | 384 kts | 61° |
| 2026-05-05 22:05 | 30.34838 | -97.22500 | 10658 ft | 397 kts | 68° |
| 2026-05-05 22:05 | 30.35621 | -97.19391 | 10792 ft | 408 kts | 82° |
| 2026-05-05 22:05 | 30.35754 | -97.16098 | 11082 ft | 412 kts | 96° |
| 2026-05-05 22:06 | 30.35548 | -97.12775 | 11488 ft | 416 kts | 96° |
| 2026-05-05 22:06 | 30.35348 | -97.09426 | 11933 ft | 419 kts | 96° |
| 2026-05-05 22:06 | 30.35157 | -97.06096 | 12365 ft | 422 kts | 96° |
| 2026-05-05 22:06 | 30.34964 | -97.02694 | 12812 ft | 425 kts | 96° |
| 2026-05-05 22:07 | 30.34767 | -96.99267 | 13243 ft | 429 kts | 95° |
| 2026-05-05 22:07 | 30.34566 | -96.95807 | 13650 ft | 432 kts | 95° |
| 2026-05-05 22:07 | 30.34362 | -96.92322 | 14040 ft | 436 kts | 95° |
| 2026-05-05 22:07 | 30.34152 | -96.88803 | 14420 ft | 440 kts | 96° |
| 2026-05-05 22:08 | 30.33940 | -96.85257 | 14798 ft | 443 kts | 95° |
| 2026-05-05 22:08 | 30.33726 | -96.81682 | 15183 ft | 447 kts | 95° |
| 2026-05-05 22:08 | 30.33509 | -96.78125 | 15589 ft | 450 kts | 95° |
| 2026-05-05 22:08 | 30.33286 | -96.74497 | 15965 ft | 453 kts | 95° |
| 2026-05-05 22:09 | 30.33059 | -96.70843 | 16347 ft | 457 kts | 95° |
| 2026-05-05 22:09 | 30.32829 | -96.67155 | 16737 ft | 461 kts | 95° |
| 2026-05-05 22:09 | 30.32595 | -96.63439 | 17098 ft | 465 kts | 95° |
| 2026-05-05 22:09 | 30.32358 | -96.59698 | 17449 ft | 468 kts | 95° |
| 2026-05-05 22:10 | 30.32116 | -96.55928 | 17806 ft | 471 kts | 95° |
| 2026-05-05 22:10 | 30.31875 | -96.52130 | 18153 ft | 475 kts | 95° |
| 2026-05-05 22:10 | 30.31638 | -96.48354 | 18494 ft | 478 kts | 95° |
| 2026-05-05 22:10 | 30.31397 | -96.44501 | 18837 ft | 482 kts | 95° |
| 2026-05-05 22:11 | 30.31149 | -96.40614 | 19169 ft | 486 kts | 95° |
| 2026-05-05 22:11 | 30.30895 | -96.36706 | 19499 ft | 489 kts | 95° |
| 2026-05-05 22:11 | 30.30636 | -96.32768 | 19817 ft | 493 kts | 95° |
| 2026-05-05 22:11 | 30.30371 | -96.28804 | 20141 ft | 496 kts | 95° |
| 2026-05-05 22:12 | 30.30103 | -96.24811 | 20437 ft | 499 kts | 95° |
| 2026-05-05 22:12 | 30.29836 | -96.20798 | 20744 ft | 502 kts | 95° |
| 2026-05-05 22:12 | 30.29576 | -96.16810 | 21015 ft | 505 kts | 95° |
| 2026-05-05 22:12 | 30.29313 | -96.12746 | 21293 ft | 508 kts | 95° |
| 2026-05-05 22:13 | 30.28903 | -96.08680 | 21539 ft | 510 kts | 102° |
| 2026-05-05 22:13 | 30.27996 | -96.04718 | 21801 ft | 510 kts | 111° |
| 2026-05-05 22:13 | 30.26597 | -96.00952 | 22051 ft | 509 kts | 121° |
| 2026-05-05 22:13 | 30.24916 | -95.97337 | 22289 ft | 512 kts | 121° |
| 2026-05-05 22:14 | 30.23228 | -95.93701 | 22525 ft | 514 kts | 121° |
| 2026-05-05 22:14 | 30.21538 | -95.90045 | 22776 ft | 517 kts | 121° |
| 2026-05-05 22:14 | 30.19865 | -95.86419 | 22999 ft | 519 kts | 121° |
| 2026-05-05 22:14 | 30.18163 | -95.82732 | 23257 ft | 520 kts | 121° |
| 2026-05-05 22:15 | 30.16457 | -95.79046 | 23621 ft | 520 kts | 122° |
| 2026-05-05 22:15 | 30.14746 | -95.75367 | 23939 ft | 520 kts | 122° |
| 2026-05-05 22:15 | 30.13031 | -95.71685 | 24245 ft | 521 kts | 122° |
| 2026-05-05 22:15 | 30.11317 | -95.68003 | 24552 ft | 521 kts | 122° |
| 2026-05-05 22:16 | 30.09602 | -95.64317 | 24864 ft | 521 kts | 122° |
| 2026-05-05 22:16 | 30.07886 | -95.60627 | 25193 ft | 521 kts | 122° |
| 2026-05-05 22:16 | 30.06169 | -95.56945 | 25547 ft | 521 kts | 122° |
| 2026-05-05 22:16 | 30.04453 | -95.53268 | 25899 ft | 520 kts | 122° |
| 2026-05-05 22:17 | 30.02762 | -95.49648 | 26243 ft | 520 kts | 122° |
| 2026-05-05 22:17 | 30.01043 | -95.45978 | 26611 ft | 519 kts | 122° |
| 2026-05-05 22:17 | 29.99328 | -95.42319 | 26965 ft | 518 kts | 122° |
| 2026-05-05 22:17 | 29.97698 | -95.38618 | 27335 ft | 519 kts | 116° |
| 2026-05-05 22:18 | 29.96520 | -95.34675 | 27696 ft | 522 kts | 106° |
| 2026-05-05 22:18 | 29.95889 | -95.30550 | 28036 ft | 524 kts | 95° |
| 2026-05-05 22:18 | 29.95809 | -95.26355 | 28370 ft | 524 kts | 88° |
| 2026-05-05 22:18 | 29.95888 | -95.22157 | 28700 ft | 524 kts | 89° |
| 2026-05-05 22:19 | 29.95954 | -95.18016 | 29041 ft | 523 kts | 89° |
| 2026-05-05 22:19 | 29.96009 | -95.13820 | 29409 ft | 523 kts | 89° |
| 2026-05-05 22:19 | 29.96054 | -95.09637 | 29776 ft | 522 kts | 89° |
| 2026-05-05 22:19 | 29.96098 | -95.05456 | 30132 ft | 521 kts | 89° |
| 2026-05-05 22:20 | 29.96143 | -95.01279 | 30503 ft | 520 kts | 89° |
| 2026-05-05 22:20 | 29.96189 | -94.97115 | 30840 ft | 520 kts | 89° |
| 2026-05-05 22:20 | 29.96238 | -94.92945 | 31162 ft | 520 kts | 89° |
| 2026-05-05 22:20 | 29.96291 | -94.88777 | 31489 ft | 520 kts | 89° |
| 2026-05-05 22:21 | 29.96343 | -94.84612 | 31808 ft | 520 kts | 89° |
| 2026-05-05 22:21 | 29.96392 | -94.80495 | 32119 ft | 520 kts | 89° |
| 2026-05-05 22:21 | 29.96440 | -94.76329 | 32419 ft | 520 kts | 89° |
| 2026-05-05 22:21 | 29.96484 | -94.72157 | 32723 ft | 521 kts | 89° |
| 2026-05-05 22:22 | 29.96526 | -94.67973 | 32841 ft | 523 kts | 89° |
| 2026-05-05 22:22 | 29.96604 | -94.59471 | 32852 ft | 537 kts | 89° |
| 2026-05-05 22:23 | 29.96680 | -94.50768 | 32862 ft | 546 kts | 89° |
| 2026-05-05 22:23 | 29.96753 | -94.42049 | 32859 ft | 548 kts | 89° |
| 2026-05-05 22:24 | 29.96823 | -94.33255 | 32869 ft | 548 kts | 89° |
| 2026-05-05 22:24 | 29.96890 | -94.24460 | 32869 ft | 549 kts | 89° |
| 2026-05-05 22:25 | 29.96943 | -94.15665 | 32869 ft | 549 kts | 89° |
| 2026-05-05 22:25 | 29.96994 | -94.06924 | 32876 ft | 549 kts | 89° |
| 2026-05-05 22:26 | 29.97043 | -93.98129 | 32878 ft | 548 kts | 89° |
| 2026-05-05 22:26 | 29.97078 | -93.89336 | 32882 ft | 549 kts | 89° |
| 2026-05-05 22:27 | 29.97102 | -93.80539 | 32894 ft | 549 kts | 89° |
| 2026-05-05 22:27 | 29.97129 | -93.71802 | 32897 ft | 548 kts | 89° |
| 2026-05-05 22:28 | 29.97152 | -93.63011 | 32898 ft | 548 kts | 89° |
| 2026-05-05 22:28 | 29.97165 | -93.54224 | 32904 ft | 548 kts | 89° |
| 2026-05-05 22:29 | 29.97177 | -93.45439 | 32907 ft | 548 kts | 89° |
| 2026-05-05 22:29 | 29.97185 | -93.36712 | 32911 ft | 548 kts | 89° |
| 2026-05-05 22:30 | 29.97179 | -93.27928 | 32917 ft | 548 kts | 90° |
| 2026-05-05 22:30 | 29.97159 | -93.19139 | 32916 ft | 548 kts | 89° |
| 2026-05-05 22:31 | 29.97145 | -93.10357 | 32916 ft | 547 kts | 89° |
| 2026-05-05 22:31 | 29.97131 | -93.01640 | 32912 ft | 547 kts | 89° |
| 2026-05-05 22:32 | 29.97153 | -92.92874 | 32909 ft | 546 kts | 85° |
| 2026-05-05 22:32 | 29.98405 | -92.84303 | 32915 ft | 542 kts | 74° |
| 2026-05-05 22:33 | 30.00065 | -92.75820 | 32916 ft | 542 kts | 74° |
| 2026-05-05 22:33 | 30.01697 | -92.67383 | 32907 ft | 543 kts | 74° |
| 2026-05-05 22:34 | 30.03339 | -92.58864 | 32910 ft | 544 kts | 74° |
| 2026-05-05 22:34 | 30.04983 | -92.50325 | 32903 ft | 545 kts | 74° |
| 2026-05-05 22:35 | 30.06620 | -92.41780 | 32910 ft | 545 kts | 74° |
| 2026-05-05 22:35 | 30.08243 | -92.33289 | 32917 ft | 545 kts | 74° |
| 2026-05-05 22:36 | 30.09865 | -92.24741 | 32918 ft | 545 kts | 74° |
| 2026-05-05 22:36 | 30.11479 | -92.16195 | 32918 ft | 545 kts | 74° |
| 2026-05-05 22:37 | 30.13104 | -92.07649 | 32919 ft | 545 kts | 74° |
| 2026-05-05 22:37 | 30.14708 | -91.99158 | 32920 ft | 545 kts | 74° |
| 2026-05-05 22:38 | 30.16312 | -91.90603 | 32922 ft | 545 kts | 74° |
| 2026-05-05 22:38 | 30.17912 | -91.82043 | 32922 ft | 545 kts | 74° |
| 2026-05-05 22:39 | 30.19503 | -91.73474 | 32929 ft | 546 kts | 74° |
| 2026-05-05 22:39 | 30.21081 | -91.64957 | 32935 ft | 545 kts | 74° |
| 2026-05-05 22:40 | 30.22661 | -91.56392 | 32929 ft | 545 kts | 74° |
| 2026-05-05 22:40 | 30.24242 | -91.47810 | 32932 ft | 546 kts | 74° |
| 2026-05-05 22:41 | 30.25823 | -91.39227 | 32938 ft | 546 kts | 74° |
| 2026-05-05 22:41 | 30.27381 | -91.30696 | 32941 ft | 546 kts | 74° |
| 2026-05-05 22:42 | 30.28939 | -91.22105 | 32945 ft | 545 kts | 74° |
| 2026-05-05 22:42 | 30.30497 | -91.13522 | 32953 ft | 545 kts | 74° |
| 2026-05-05 22:43 | 30.32048 | -91.04938 | 32954 ft | 545 kts | 74° |
| 2026-05-05 22:43 | 30.33573 | -90.96410 | 32954 ft | 544 kts | 74° |
| 2026-05-05 22:44 | 30.35105 | -90.87836 | 32960 ft | 544 kts | 73° |
| 2026-05-05 22:44 | 30.36641 | -90.79263 | 32960 ft | 543 kts | 73° |
| 2026-05-05 22:45 | 30.38161 | -90.70703 | 32961 ft | 543 kts | 74° |
| 2026-05-05 22:45 | 30.39671 | -90.62133 | 32961 ft | 543 kts | 74° |
| 2026-05-05 22:46 | 30.41171 | -90.53622 | 32964 ft | 543 kts | 73° |
| 2026-05-05 22:46 | 30.42686 | -90.45051 | 32963 ft | 543 kts | 73° |
| 2026-05-05 22:47 | 30.44187 | -90.36485 | 32964 ft | 543 kts | 74° |
| 2026-05-05 22:47 | 30.45675 | -90.27913 | 32964 ft | 542 kts | 74° |
| 2026-05-05 22:48 | 30.47178 | -90.19422 | 32958 ft | 539 kts | 70° |
| 2026-05-05 22:48 | 30.49295 | -90.11116 | 32958 ft | 537 kts | 68° |
| 2026-05-05 22:49 | 30.51419 | -90.02811 | 32961 ft | 537 kts | 68° |
| 2026-05-05 22:49 | 30.53514 | -89.94547 | 32964 ft | 538 kts | 68° |
| 2026-05-05 22:50 | 30.55621 | -89.86226 | 32982 ft | 537 kts | 68° |
| 2026-05-05 22:50 | 30.57723 | -89.77909 | 32978 ft | 537 kts | 68° |
| 2026-05-05 22:51 | 30.59819 | -89.69595 | 32970 ft | 537 kts | 68° |
| 2026-05-05 22:51 | 30.61903 | -89.61332 | 32981 ft | 537 kts | 68° |
| 2026-05-05 22:52 | 30.63992 | -89.53008 | 32982 ft | 537 kts | 68° |
| 2026-05-05 22:52 | 30.66064 | -89.44685 | 32978 ft | 536 kts | 68° |
| 2026-05-05 22:53 | 30.68133 | -89.36382 | 32982 ft | 535 kts | 68° |
| 2026-05-05 22:53 | 30.70187 | -89.28137 | 32991 ft | 535 kts | 68° |
| 2026-05-05 22:54 | 30.72249 | -89.19827 | 32995 ft | 535 kts | 68° |
| 2026-05-05 22:54 | 30.74297 | -89.11518 | 32998 ft | 534 kts | 68° |
| 2026-05-05 22:55 | 30.76336 | -89.03210 | 32997 ft | 534 kts | 68° |
| 2026-05-05 22:55 | 30.78369 | -88.94964 | 32999 ft | 534 kts | 67° |
| 2026-05-05 22:56 | 30.80406 | -88.86663 | 33001 ft | 534 kts | 68° |
| 2026-05-05 22:56 | 30.82423 | -88.78355 | 33000 ft | 534 kts | 68° |
| 2026-05-05 22:57 | 30.84438 | -88.70050 | 33000 ft | 533 kts | 68° |
| 2026-05-05 22:57 | 30.86452 | -88.61754 | 33000 ft | 533 kts | 68° |
| 2026-05-05 22:58 | 30.88452 | -88.53513 | 33001 ft | 533 kts | 68° |
| 2026-05-05 22:58 | 30.90450 | -88.45207 | 33011 ft | 533 kts | 68° |
| 2026-05-05 22:59 | 30.92628 | -88.37009 | 33017 ft | 523 kts | 59° |
| 2026-05-05 22:59 | 30.96015 | -88.29642 | 33013 ft | 514 kts | 51° |
| 2026-05-05 23:00 | 31.01311 | -88.18831 | 33015 ft | 515 kts | 52° |
| 2026-05-05 23:00 | 31.04836 | -88.11570 | 33017 ft | 514 kts | 51° |
| 2026-05-05 23:01 | 31.08358 | -88.04309 | 33017 ft | 514 kts | 51° |
| 2026-05-05 23:01 | 31.11885 | -87.97048 | 33019 ft | 514 kts | 51° |
| 2026-05-05 23:02 | 31.15387 | -87.89837 | 33025 ft | 514 kts | 51° |
| 2026-05-05 23:02 | 31.18894 | -87.82580 | 33024 ft | 513 kts | 51° |
| 2026-05-05 23:03 | 31.22392 | -87.75320 | 33024 ft | 513 kts | 51° |
| 2026-05-05 23:03 | 31.25889 | -87.68063 | 33021 ft | 512 kts | 51° |
| 2026-05-05 23:04 | 31.29352 | -87.60850 | 33019 ft | 512 kts | 51° |
| 2026-05-05 23:04 | 31.33431 | -87.54239 | 33017 ft | 495 kts | 39° |
| 2026-05-05 23:05 | 31.37892 | -87.48098 | 33012 ft | 496 kts | 39° |
| 2026-05-05 23:05 | 31.42343 | -87.41929 | 33014 ft | 496 kts | 39° |
| 2026-05-05 23:06 | 31.46759 | -87.35784 | 33019 ft | 496 kts | 39° |
| 2026-05-05 23:06 | 31.51193 | -87.29595 | 33023 ft | 496 kts | 39° |
| 2026-05-05 23:07 | 31.55631 | -87.23413 | 33030 ft | 495 kts | 39° |
| 2026-05-05 23:07 | 31.60064 | -87.17236 | 33033 ft | 495 kts | 39° |
| 2026-05-05 23:08 | 31.64456 | -87.11088 | 33029 ft | 494 kts | 39° |
| 2026-05-05 23:08 | 31.68873 | -87.04898 | 33024 ft | 494 kts | 39° |
| 2026-05-05 23:09 | 31.73285 | -86.98713 | 33029 ft | 494 kts | 39° |
| 2026-05-05 23:09 | 31.77691 | -86.92520 | 33024 ft | 494 kts | 39° |
| 2026-05-05 23:10 | 31.82092 | -86.86315 | 33020 ft | 494 kts | 39° |
| 2026-05-05 23:10 | 31.86457 | -86.80155 | 33022 ft | 493 kts | 39° |
| 2026-05-05 23:11 | 31.90846 | -86.73960 | 33020 ft | 493 kts | 39° |
| 2026-05-05 23:11 | 31.95232 | -86.67760 | 33017 ft | 492 kts | 39° |
| 2026-05-05 23:12 | 31.99611 | -86.61560 | 33014 ft | 492 kts | 39° |
| 2026-05-05 23:12 | 32.03947 | -86.55407 | 33019 ft | 491 kts | 39° |
| 2026-05-05 23:13 | 32.08315 | -86.49207 | 33020 ft | 491 kts | 39° |
| 2026-05-05 23:13 | 32.12679 | -86.43008 | 33020 ft | 491 kts | 39° |
| 2026-05-05 23:14 | 32.17029 | -86.36799 | 33019 ft | 490 kts | 39° |
| 2026-05-05 23:14 | 32.21340 | -86.30632 | 33019 ft | 490 kts | 39° |
| 2026-05-05 23:15 | 32.25668 | -86.24442 | 33017 ft | 489 kts | 39° |
| 2026-05-05 23:15 | 32.29989 | -86.18234 | 33007 ft | 489 kts | 39° |
| 2026-05-05 23:16 | 32.34307 | -86.12038 | 32998 ft | 488 kts | 40° |
| 2026-05-05 23:16 | 32.38596 | -86.05877 | 32996 ft | 489 kts | 39° |
| 2026-05-05 23:17 | 32.42913 | -85.99670 | 32996 ft | 489 kts | 39° |
| 2026-05-05 23:17 | 32.47228 | -85.93454 | 33004 ft | 489 kts | 40° |
| 2026-05-05 23:18 | 32.51532 | -85.87220 | 33007 ft | 489 kts | 40° |
| 2026-05-05 23:18 | 32.55801 | -85.81023 | 33013 ft | 489 kts | 40° |
| 2026-05-05 23:19 | 32.60100 | -85.74792 | 33021 ft | 488 kts | 40° |
| 2026-05-05 23:19 | 32.64398 | -85.68544 | 33029 ft | 488 kts | 40° |
| 2026-05-05 23:20 | 32.68697 | -85.62303 | 33034 ft | 488 kts | 40° |
| 2026-05-05 23:20 | 32.72961 | -85.56095 | 33047 ft | 488 kts | 40° |
| 2026-05-05 23:21 | 32.77245 | -85.49839 | 33052 ft | 488 kts | 41° |
| 2026-05-05 23:21 | 32.81536 | -85.43570 | 33054 ft | 488 kts | 41° |
| 2026-05-05 23:22 | 32.85810 | -85.37305 | 33055 ft | 488 kts | 41° |
| 2026-05-05 23:22 | 32.90051 | -85.31076 | 33051 ft | 488 kts | 41° |
| 2026-05-05 23:23 | 32.94326 | -85.24801 | 33048 ft | 488 kts | 41° |
| 2026-05-05 23:23 | 32.98592 | -85.18518 | 33049 ft | 488 kts | 41° |
| 2026-05-05 23:24 | 33.02866 | -85.12217 | 33051 ft | 489 kts | 41° |
| 2026-05-05 23:24 | 33.07128 | -85.05916 | 33052 ft | 488 kts | 41° |
| 2026-05-05 23:25 | 33.11361 | -84.99653 | 33052 ft | 488 kts | 41° |
| 2026-05-05 23:25 | 33.15617 | -84.93343 | 33053 ft | 488 kts | 41° |
| 2026-05-05 23:26 | 33.19872 | -84.87031 | 33049 ft | 488 kts | 42° |
| 2026-05-05 23:26 | 33.24123 | -84.80711 | 33046 ft | 488 kts | 42° |
| 2026-05-05 23:27 | 33.28347 | -84.74415 | 33048 ft | 489 kts | 42° |
| 2026-05-05 23:27 | 33.32593 | -84.68071 | 33048 ft | 489 kts | 42° |
| 2026-05-05 23:28 | 33.36838 | -84.61720 | 33046 ft | 489 kts | 42° |
| 2026-05-05 23:28 | 33.41086 | -84.55361 | 33038 ft | 489 kts | 42° |
| 2026-05-05 23:29 | 33.45310 | -84.49040 | 33035 ft | 489 kts | 42° |
| 2026-05-05 23:29 | 33.49553 | -84.42661 | 33038 ft | 490 kts | 43° |
| 2026-05-05 23:30 | 33.53795 | -84.36260 | 33044 ft | 491 kts | 43° |
| 2026-05-05 23:30 | 33.58038 | -84.29857 | 33038 ft | 491 kts | 43° |
| 2026-05-05 23:31 | 33.62258 | -84.23486 | 33037 ft | 491 kts | 43° |
| 2026-05-05 23:31 | 33.66504 | -84.17062 | 33029 ft | 491 kts | 43° |
| 2026-05-05 23:32 | 33.70748 | -84.10630 | 33034 ft | 492 kts | 43° |
| 2026-05-05 23:32 | 33.74991 | -84.04192 | 33033 ft | 491 kts | 43° |
| 2026-05-05 23:33 | 33.79227 | -83.97746 | 33029 ft | 492 kts | 43° |
| 2026-05-05 23:33 | 33.83434 | -83.91330 | 33030 ft | 491 kts | 43° |
| 2026-05-05 23:34 | 33.87662 | -83.84868 | 33032 ft | 492 kts | 43° |
| 2026-05-05 23:34 | 33.91860 | -83.78362 | 33031 ft | 493 kts | 44° |
| 2026-05-05 23:35 | 33.95954 | -83.71721 | 33035 ft | 494 kts | 45° |
| 2026-05-05 23:35 | 33.99982 | -83.65073 | 33039 ft | 494 kts | 45° |
| 2026-05-05 23:36 | 34.04049 | -83.58399 | 33047 ft | 494 kts | 45° |
| 2026-05-05 23:36 | 34.08130 | -83.51740 | 33046 ft | 494 kts | 45° |
| 2026-05-05 23:37 | 34.12213 | -83.45078 | 33043 ft | 494 kts | 45° |
| 2026-05-05 23:37 | 34.16288 | -83.38407 | 33040 ft | 494 kts | 45° |
| 2026-05-05 23:38 | 34.20327 | -83.31772 | 33041 ft | 494 kts | 45° |
| 2026-05-05 23:38 | 34.24387 | -83.25089 | 33042 ft | 493 kts | 45° |
| 2026-05-05 23:39 | 34.28444 | -83.18407 | 33038 ft | 493 kts | 45° |
| 2026-05-05 23:39 | 34.32496 | -83.11718 | 33038 ft | 493 kts | 45° |
| 2026-05-05 23:40 | 34.36513 | -83.05080 | 33047 ft | 492 kts | 45° |
| 2026-05-05 23:40 | 34.40553 | -82.98407 | 33042 ft | 491 kts | 45° |
| 2026-05-05 23:41 | 34.44586 | -82.91722 | 33037 ft | 491 kts | 46° |
| 2026-05-05 23:41 | 34.48602 | -82.85020 | 33032 ft | 491 kts | 46° |
| 2026-05-05 23:42 | 34.52590 | -82.78363 | 33030 ft | 491 kts | 46° |
| 2026-05-05 23:42 | 34.56602 | -82.71670 | 33025 ft | 491 kts | 46° |
| 2026-05-05 23:43 | 34.60613 | -82.64971 | 33022 ft | 490 kts | 46° |
| 2026-05-05 23:43 | 34.64615 | -82.58266 | 33028 ft | 490 kts | 46° |
| 2026-05-05 23:44 | 34.68606 | -82.51571 | 33029 ft | 489 kts | 46° |
| 2026-05-05 23:44 | 34.72563 | -82.44915 | 33029 ft | 489 kts | 46° |
| 2026-05-05 23:45 | 34.76539 | -82.38210 | 33028 ft | 489 kts | 46° |
| 2026-05-05 23:45 | 34.80510 | -82.31504 | 33030 ft | 489 kts | 46° |
| 2026-05-05 23:46 | 34.84482 | -82.24793 | 33031 ft | 488 kts | 46° |
| 2026-05-05 23:46 | 34.88421 | -82.18126 | 33022 ft | 488 kts | 46° |
| 2026-05-05 23:47 | 34.92382 | -82.11397 | 33022 ft | 489 kts | 46° |
| 2026-05-05 23:47 | 34.96341 | -82.04661 | 33020 ft | 489 kts | 46° |
| 2026-05-05 23:48 | 35.00299 | -81.97923 | 33016 ft | 489 kts | 46° |
| 2026-05-05 23:48 | 35.04223 | -81.91228 | 33031 ft | 487 kts | 46° |
| 2026-05-05 23:49 | 35.08265 | -81.84617 | 33028 ft | 485 kts | 44° |
| 2026-05-05 23:49 | 35.12359 | -81.78129 | 33028 ft | 484 kts | 44° |
| 2026-05-05 23:50 | 35.16470 | -81.71582 | 33018 ft | 484 kts | 44° |
| 2026-05-05 23:50 | 35.20540 | -81.65003 | 33016 ft | 485 kts | 45° |
| 2026-05-05 23:51 | 35.24554 | -81.58450 | 33009 ft | 487 kts | 45° |
| 2026-05-05 23:51 | 35.28619 | -81.51806 | 33016 ft | 486 kts | 45° |
| 2026-05-05 23:52 | 35.32691 | -81.45197 | 33020 ft | 486 kts | 44° |
| 2026-05-05 23:52 | 35.36751 | -81.38583 | 33024 ft | 485 kts | 45° |
| 2026-05-05 23:53 | 35.40764 | -81.32017 | 33028 ft | 485 kts | 45° |
| 2026-05-05 23:53 | 35.44804 | -81.25396 | 33026 ft | 485 kts | 45° |
| 2026-05-05 23:54 | 35.48839 | -81.18773 | 33025 ft | 484 kts | 45° |
| 2026-05-05 23:54 | 35.52869 | -81.12152 | 33024 ft | 485 kts | 45° |
| 2026-05-05 23:55 | 35.56900 | -81.05518 | 33020 ft | 485 kts | 45° |
| 2026-05-05 23:55 | 35.60899 | -80.98919 | 33018 ft | 485 kts | 45° |
| 2026-05-05 23:56 | 35.64920 | -80.92261 | 33029 ft | 485 kts | 45° |
| 2026-05-05 23:56 | 35.68947 | -80.85596 | 33035 ft | 485 kts | 45° |
| 2026-05-05 23:57 | 35.72963 | -80.78931 | 33031 ft | 485 kts | 45° |
| 2026-05-05 23:57 | 35.76940 | -80.72309 | 33036 ft | 485 kts | 45° |
| 2026-05-05 23:58 | 35.80952 | -80.65634 | 33035 ft | 484 kts | 45° |
| 2026-05-05 23:58 | 35.84961 | -80.58951 | 33037 ft | 485 kts | 45° |
| 2026-05-05 23:59 | 35.88954 | -80.52249 | 33036 ft | 485 kts | 45° |
| 2026-05-05 23:59 | 35.92921 | -80.45595 | 33031 ft | 485 kts | 45° |
| 2026-05-06 00:00 | 35.96923 | -80.38884 | 33028 ft | 485 kts | 45° |
| 2026-05-06 00:00 | 36.00919 | -80.32174 | 33025 ft | 485 kts | 45° |
| 2026-05-06 00:01 | 36.04919 | -80.25465 | 33022 ft | 485 kts | 45° |
| 2026-05-06 00:01 | 36.08917 | -80.18745 | 33020 ft | 485 kts | 45° |
| 2026-05-06 00:02 | 36.12875 | -80.12068 | 33018 ft | 485 kts | 45° |
| 2026-05-06 00:02 | 36.16863 | -80.05320 | 33012 ft | 485 kts | 46° |
| 2026-05-06 00:03 | 36.20845 | -79.98570 | 33011 ft | 486 kts | 46° |
| 2026-05-06 00:03 | 36.24832 | -79.91815 | 33009 ft | 486 kts | 46° |
| 2026-05-06 00:04 | 36.28786 | -79.85104 | 33009 ft | 485 kts | 46° |
| 2026-05-06 00:04 | 36.32756 | -79.78339 | 33009 ft | 485 kts | 46° |
| 2026-05-06 00:05 | 36.38706 | -79.68187 | 33006 ft | 485 kts | 46° |
| 2026-05-06 00:06 | 36.42867 | -79.61693 | 32996 ft | 468 kts | 37° |
| 2026-05-06 00:06 | 36.45117 | -79.58855 | 32996 ft | 455 kts | 37° |
| 2026-05-06 00:06 | 36.47331 | -79.56070 | 32999 ft | 452 kts | 37° |
| 2026-05-06 00:07 | 36.51743 | -79.50546 | 32998 ft | 450 kts | 37° |
| 2026-05-06 00:07 | 36.56119 | -79.45062 | 32980 ft | 449 kts | 37° |
| 2026-05-06 00:08 | 36.60516 | -79.39518 | 32995 ft | 451 kts | 37° |
| 2026-05-06 00:08 | 36.64913 | -79.33960 | 32993 ft | 450 kts | 37° |
| 2026-05-06 00:09 | 36.69311 | -79.28400 | 32998 ft | 451 kts | 37° |
| 2026-05-06 00:09 | 36.73706 | -79.22832 | 33002 ft | 451 kts | 38° |
| 2026-05-06 00:10 | 36.78070 | -79.17289 | 33003 ft | 451 kts | 38° |
| 2026-05-06 00:10 | 36.82463 | -79.11699 | 33002 ft | 451 kts | 38° |
| 2026-05-06 00:11 | 36.86854 | -79.06097 | 33002 ft | 452 kts | 38° |
| 2026-05-06 00:11 | 36.91251 | -79.00488 | 33002 ft | 452 kts | 38° |
| 2026-05-06 00:12 | 36.95642 | -78.94877 | 32999 ft | 452 kts | 38° |
| 2026-05-06 00:12 | 37.00011 | -78.89290 | 32996 ft | 452 kts | 38° |
| 2026-05-06 00:13 | 37.04397 | -78.83660 | 32987 ft | 452 kts | 39° |
| 2026-05-06 00:13 | 37.08781 | -78.78020 | 32993 ft | 452 kts | 39° |
| 2026-05-06 00:14 | 37.13170 | -78.72376 | 32995 ft | 452 kts | 39° |
| 2026-05-06 00:14 | 37.17556 | -78.66728 | 32993 ft | 452 kts | 39° |
| 2026-05-06 00:15 | 37.21912 | -78.61104 | 32984 ft | 452 kts | 39° |
| 2026-05-06 00:15 | 37.26288 | -78.55435 | 32986 ft | 453 kts | 39° |
| 2026-05-06 00:16 | 37.30667 | -78.49757 | 32982 ft | 452 kts | 39° |
| 2026-05-06 00:16 | 37.35041 | -78.44073 | 32980 ft | 452 kts | 40° |
| 2026-05-06 00:17 | 37.39419 | -78.38377 | 32977 ft | 453 kts | 40° |
| 2026-05-06 00:17 | 37.43830 | -78.32835 | 32973 ft | 445 kts | 30° |
| 2026-05-06 00:18 | 37.49021 | -78.28644 | 32970 ft | 440 kts | 25° |
| 2026-05-06 00:18 | 37.54219 | -78.24658 | 32968 ft | 441 kts | 25° |
| 2026-05-06 00:19 | 37.59472 | -78.20659 | 32970 ft | 441 kts | 25° |
| 2026-05-06 00:19 | 37.64730 | -78.16674 | 32970 ft | 441 kts | 25° |
| 2026-05-06 00:20 | 37.69994 | -78.12695 | 32964 ft | 441 kts | 25° |
| 2026-05-06 00:20 | 37.75263 | -78.08716 | 32957 ft | 441 kts | 25° |
| 2026-05-06 00:21 | 37.80542 | -78.04749 | 32960 ft | 442 kts | 25° |
| 2026-05-06 00:21 | 37.85793 | -78.00808 | 32959 ft | 442 kts | 25° |
| 2026-05-06 00:22 | 37.91083 | -77.96841 | 32961 ft | 442 kts | 25° |
| 2026-05-06 00:22 | 37.96375 | -77.92875 | 32960 ft | 442 kts | 25° |
| 2026-05-06 00:23 | 38.01663 | -77.88914 | 32968 ft | 442 kts | 25° |
| 2026-05-06 00:23 | 38.06942 | -77.84962 | 32966 ft | 443 kts | 25° |
| 2026-05-06 00:24 | 38.12241 | -77.80997 | 32967 ft | 442 kts | 25° |
| 2026-05-06 00:24 | 38.17547 | -77.77028 | 32966 ft | 442 kts | 25° |
| 2026-05-06 00:25 | 38.22858 | -77.73075 | 32960 ft | 442 kts | 25° |
| 2026-05-06 00:25 | 38.28161 | -77.69113 | 32953 ft | 442 kts | 25° |
| 2026-05-06 00:26 | 38.32935 | -77.64084 | 32947 ft | 457 kts | 46° |
| 2026-05-06 00:26 | 38.36911 | -77.57764 | 32941 ft | 458 kts | 46° |
| 2026-05-06 00:27 | 38.40837 | -77.51436 | 32938 ft | 458 kts | 47° |
| 2026-05-06 00:27 | 38.44787 | -77.45056 | 32939 ft | 458 kts | 47° |
| 2026-05-06 00:28 | 38.48750 | -77.38675 | 32940 ft | 459 kts | 46° |
| 2026-05-06 00:28 | 38.52714 | -77.32289 | 32940 ft | 459 kts | 46° |
| 2026-05-06 00:29 | 38.56602 | -77.26004 | 32939 ft | 459 kts | 47° |
| 2026-05-06 00:29 | 38.60556 | -77.19592 | 32935 ft | 459 kts | 47° |
| 2026-05-06 00:30 | 38.64512 | -77.13174 | 32928 ft | 460 kts | 47° |
| 2026-05-06 00:30 | 38.68436 | -77.06792 | 32922 ft | 459 kts | 47° |
| 2026-05-06 00:31 | 38.72385 | -77.00364 | 32916 ft | 459 kts | 47° |
| 2026-05-06 00:31 | 38.76333 | -76.93919 | 32915 ft | 460 kts | 47° |
| 2026-05-06 00:32 | 38.80269 | -76.87459 | 32919 ft | 460 kts | 47° |
| 2026-05-06 00:32 | 38.83542 | -76.82081 | 32925 ft | 460 kts | 47° |
| 2026-05-06 00:33 | 38.88120 | -76.74566 | 32925 ft | 460 kts | 47° |
| 2026-05-06 00:33 | 38.92062 | -76.68099 | 32923 ft | 460 kts | 47° |
| 2026-05-06 00:34 | 38.95327 | -76.62719 | 32924 ft | 460 kts | 47° |
| 2026-05-06 00:34 | 38.99250 | -76.56229 | 32926 ft | 460 kts | 47° |
| 2026-05-06 00:35 | 39.03169 | -76.49736 | 32927 ft | 459 kts | 47° |
| 2026-05-06 00:35 | 39.07079 | -76.43238 | 32926 ft | 459 kts | 47° |
| 2026-05-06 00:36 | 39.10982 | -76.36730 | 32925 ft | 459 kts | 47° |
| 2026-05-06 00:36 | 39.14862 | -76.30262 | 32926 ft | 459 kts | 47° |
| 2026-05-06 00:37 | 39.18830 | -76.23815 | 32925 ft | 459 kts | 46° |
| 2026-05-06 00:37 | 39.22849 | -76.17431 | 32925 ft | 459 kts | 46° |
| 2026-05-06 00:38 | 39.26866 | -76.11032 | 32925 ft | 459 kts | 46° |
| 2026-05-06 00:38 | 39.30832 | -76.04637 | 32921 ft | 459 kts | 46° |
| 2026-05-06 00:39 | 39.34814 | -75.98185 | 32919 ft | 460 kts | 47° |
| 2026-05-06 00:39 | 39.38800 | -75.91731 | 32929 ft | 459 kts | 46° |
| 2026-05-06 00:40 | 39.42782 | -75.85274 | 32930 ft | 459 kts | 47° |
| 2026-05-06 00:40 | 39.46760 | -75.78810 | 32930 ft | 459 kts | 47° |
| 2026-05-06 00:41 | 39.50710 | -75.72389 | 32927 ft | 459 kts | 47° |
| 2026-05-06 00:41 | 39.54681 | -75.65916 | 32923 ft | 459 kts | 47° |
| 2026-05-06 00:42 | 39.58639 | -75.59443 | 32919 ft | 458 kts | 47° |
| 2026-05-06 00:42 | 39.62597 | -75.52959 | 32916 ft | 458 kts | 47° |
| 2026-05-06 00:43 | 39.66520 | -75.46510 | 32916 ft | 458 kts | 47° |
| 2026-05-06 00:43 | 39.70461 | -75.40016 | 32915 ft | 457 kts | 47° |
| 2026-05-06 00:44 | 39.74399 | -75.33524 | 32918 ft | 457 kts | 47° |
| 2026-05-06 00:44 | 39.78332 | -75.27029 | 32921 ft | 457 kts | 47° |
| 2026-05-06 00:45 | 39.82262 | -75.20541 | 32922 ft | 456 kts | 47° |
| 2026-05-06 00:45 | 39.86155 | -75.14087 | 32923 ft | 456 kts | 47° |
| 2026-05-06 00:46 | 39.90064 | -75.07581 | 32923 ft | 456 kts | 47° |
| 2026-05-06 00:46 | 39.93966 | -75.01080 | 32931 ft | 455 kts | 47° |
| 2026-05-06 00:47 | 39.97856 | -74.94588 | 32918 ft | 453 kts | 47° |
| 2026-05-06 00:47 | 39.99785 | -74.91365 | 32394 ft | 451 kts | 47° |
| 2026-05-06 00:47 | 40.01715 | -74.88138 | 31719 ft | 453 kts | 47° |
| 2026-05-06 00:47 | 40.03637 | -74.84916 | 30948 ft | 457 kts | 49° |
| 2026-05-06 00:48 | 40.05591 | -74.81637 | 30150 ft | 460 kts | 49° |
| 2026-05-06 00:48 | 40.07568 | -74.78323 | 29352 ft | 463 kts | 50° |
| 2026-05-06 00:48 | 40.09550 | -74.74996 | 28533 ft | 466 kts | 50° |
| 2026-05-06 00:48 | 40.11544 | -74.71647 | 27710 ft | 469 kts | 50° |
| 2026-05-06 00:49 | 40.13551 | -74.68270 | 27138 ft | 470 kts | 50° |
| 2026-05-06 00:49 | 40.15563 | -74.64877 | 26917 ft | 473 kts | 50° |
| 2026-05-06 00:49 | 40.17583 | -74.61472 | 26907 ft | 474 kts | 50° |
| 2026-05-06 00:49 | 40.19605 | -74.58061 | 26916 ft | 475 kts | 50° |
| 2026-05-06 00:50 | 40.21628 | -74.54639 | 26916 ft | 475 kts | 50° |
| 2026-05-06 00:50 | 40.23619 | -74.51265 | 26915 ft | 475 kts | 50° |
| 2026-05-06 00:50 | 40.25636 | -74.47846 | 26915 ft | 475 kts | 50° |
| 2026-05-06 00:50 | 40.27658 | -74.44416 | 26916 ft | 475 kts | 50° |
| 2026-05-06 00:51 | 40.29674 | -74.40988 | 26916 ft | 475 kts | 50° |
| 2026-05-06 00:51 | 40.31683 | -74.37565 | 26916 ft | 475 kts | 50° |
| 2026-05-06 00:51 | 40.33698 | -74.34130 | 26915 ft | 475 kts | 50° |
| 2026-05-06 00:51 | 40.35708 | -74.30698 | 26918 ft | 475 kts | 50° |
| 2026-05-06 00:52 | 40.37719 | -74.27265 | 26922 ft | 474 kts | 50° |
| 2026-05-06 00:52 | 40.39726 | -74.23835 | 26921 ft | 474 kts | 50° |
| 2026-05-06 00:52 | 40.41735 | -74.20400 | 26922 ft | 474 kts | 50° |
| 2026-05-06 00:52 | 40.43739 | -74.16972 | 26919 ft | 474 kts | 50° |
| 2026-05-06 00:53 | 40.45718 | -74.13586 | 26917 ft | 474 kts | 50° |
| 2026-05-06 00:53 | 40.47723 | -74.10151 | 26913 ft | 474 kts | 50° |
| 2026-05-06 00:53 | 40.49722 | -74.06720 | 26912 ft | 473 kts | 50° |
| 2026-05-06 00:53 | 40.51716 | -74.03283 | 26904 ft | 473 kts | 50° |
| 2026-05-06 00:54 | 40.53710 | -73.99843 | 26901 ft | 473 kts | 50° |
| 2026-05-06 00:54 | 40.55703 | -73.96404 | 26899 ft | 473 kts | 50° |
| 2026-05-06 00:54 | 40.57683 | -73.92989 | 26908 ft | 462 kts | 50° |
| 2026-05-06 00:54 | 40.59591 | -73.89695 | 26915 ft | 447 kts | 50° |
| 2026-05-06 00:55 | 40.61466 | -73.86454 | 26917 ft | 443 kts | 50° |
| 2026-05-06 00:55 | 40.63302 | -73.83276 | 26916 ft | 442 kts | 50° |
| 2026-05-06 00:55 | 40.65165 | -73.80051 | 26912 ft | 442 kts | 50° |
| 2026-05-06 00:55 | 40.67025 | -73.76834 | 26914 ft | 442 kts | 50° |
| 2026-05-06 00:56 | 40.68888 | -73.73609 | 26915 ft | 442 kts | 50° |
| 2026-05-06 00:56 | 40.70746 | -73.70381 | 26916 ft | 442 kts | 50° |
| 2026-05-06 00:56 | 40.72604 | -73.67150 | 26915 ft | 442 kts | 50° |
| 2026-05-06 00:56 | 40.74463 | -73.63918 | 26916 ft | 442 kts | 50° |
| 2026-05-06 00:57 | 40.76316 | -73.60688 | 26915 ft | 442 kts | 50° |
| 2026-05-06 00:57 | 40.78170 | -73.57453 | 26913 ft | 442 kts | 50° |
| 2026-05-06 00:57 | 40.80023 | -73.54216 | 26912 ft | 442 kts | 50° |
| 2026-05-06 00:57 | 40.81878 | -73.50975 | 26914 ft | 442 kts | 50° |
| 2026-05-06 00:58 | 40.83726 | -73.47737 | 26914 ft | 442 kts | 50° |
| 2026-05-06 00:58 | 40.85552 | -73.44542 | 26914 ft | 441 kts | 49° |
| 2026-05-06 00:58 | 40.87476 | -73.41394 | 26916 ft | 440 kts | 46° |
| 2026-05-06 00:58 | 40.89493 | -73.38348 | 26916 ft | 439 kts | 45° |
| 2026-05-06 00:59 | 40.91556 | -73.35379 | 26915 ft | 439 kts | 44° |
| 2026-05-06 00:59 | 40.93640 | -73.32429 | 26915 ft | 439 kts | 44° |
| 2026-05-06 00:59 | 40.95719 | -73.29470 | 26915 ft | 438 kts | 44° |
| 2026-05-06 00:59 | 40.97775 | -73.26496 | 26914 ft | 439 kts | 44° |
| 2026-05-06 01:00 | 40.99818 | -73.23494 | 26914 ft | 439 kts | 45° |
| 2026-05-06 01:00 | 41.01847 | -73.20475 | 26911 ft | 439 kts | 45° |
| 2026-05-06 01:00 | 41.03870 | -73.17449 | 26909 ft | 439 kts | 45° |
| 2026-05-06 01:00 | 41.05864 | -73.14458 | 26905 ft | 439 kts | 45° |
| 2026-05-06 01:01 | 41.07886 | -73.11425 | 26901 ft | 439 kts | 45° |
| 2026-05-06 01:01 | 41.09910 | -73.08394 | 26898 ft | 439 kts | 45° |
| 2026-05-06 01:01 | 41.11937 | -73.05371 | 26898 ft | 441 kts | 45° |
| 2026-05-06 01:01 | 41.14008 | -73.02292 | 26892 ft | 453 kts | 45° |
| 2026-05-06 01:02 | 41.16137 | -72.99127 | 26084 ft | 465 kts | 45° |
| 2026-05-06 01:02 | 41.18310 | -72.95884 | 24832 ft | 474 kts | 46° |
| 2026-05-06 01:02 | 41.20441 | -72.92476 | 23713 ft | 487 kts | 52° |
| 2026-05-06 01:02 | 41.22222 | -72.88667 | 23190 ft | 497 kts | 60° |
| 2026-05-06 01:03 | 41.23791 | -72.84543 | 22956 ft | 501 kts | 62° |
| 2026-05-06 01:03 | 41.25367 | -72.80424 | 22822 ft | 500 kts | 62° |
| 2026-05-06 01:03 | 41.26956 | -72.76305 | 22685 ft | 501 kts | 61° |
| 2026-05-06 01:03 | 41.28538 | -72.72206 | 22432 ft | 499 kts | 62° |
| 2026-05-06 01:04 | 41.30120 | -72.68095 | 22179 ft | 497 kts | 62° |
| 2026-05-06 01:04 | 41.31687 | -72.64011 | 21929 ft | 495 kts | 62° |
| 2026-05-06 01:04 | 41.33244 | -72.59936 | 21677 ft | 494 kts | 62° |
| 2026-05-06 01:04 | 41.34773 | -72.55913 | 21422 ft | 493 kts | 62° |
| 2026-05-06 01:05 | 41.36313 | -72.51841 | 21169 ft | 491 kts | 62° |
| 2026-05-06 01:05 | 41.37843 | -72.47787 | 20936 ft | 490 kts | 62° |
| 2026-05-06 01:05 | 41.39369 | -72.43739 | 20950 ft | 489 kts | 62° |
| 2026-05-06 01:05 | 41.40899 | -72.39686 | 20952 ft | 490 kts | 62° |
| 2026-05-06 01:06 | 41.42426 | -72.35637 | 20952 ft | 490 kts | 62° |
| 2026-05-06 01:06 | 41.43953 | -72.31579 | 20953 ft | 490 kts | 63° |
| 2026-05-06 01:06 | 41.45477 | -72.27522 | 20953 ft | 490 kts | 63° |
| 2026-05-06 01:06 | 41.46978 | -72.23517 | 20951 ft | 490 kts | 63° |
| 2026-05-06 01:07 | 41.48499 | -72.19452 | 20901 ft | 490 kts | 63° |
| 2026-05-06 01:07 | 41.50007 | -72.15386 | 20651 ft | 488 kts | 63° |
| 2026-05-06 01:07 | 41.51499 | -72.11319 | 20400 ft | 487 kts | 63° |
| 2026-05-06 01:07 | 41.52973 | -72.07265 | 20150 ft | 486 kts | 64° |
| 2026-05-06 01:08 | 41.54441 | -72.03202 | 19899 ft | 485 kts | 64° |
| 2026-05-06 01:08 | 41.55895 | -71.99149 | 19646 ft | 483 kts | 65° |
| 2026-05-06 01:08 | 41.57257 | -71.95061 | 19398 ft | 481 kts | 67° |
| 2026-05-06 01:08 | 41.58502 | -71.90987 | 19151 ft | 479 kts | 69° |
| 2026-05-06 01:09 | 41.59697 | -71.86843 | 18903 ft | 477 kts | 69° |
| 2026-05-06 01:09 | 41.60855 | -71.82730 | 18650 ft | 465 kts | 70° |
| 2026-05-06 01:09 | 41.61975 | -71.78759 | 18403 ft | 449 kts | 70° |
| 2026-05-06 01:09 | 41.63071 | -71.74925 | 18151 ft | 435 kts | 69° |
| 2026-05-06 01:10 | 41.64152 | -71.71210 | 17897 ft | 423 kts | 69° |
| 2026-05-06 01:10 | 41.65213 | -71.67605 | 17648 ft | 411 kts | 69° |
| 2026-05-06 01:10 | 41.66250 | -71.64091 | 17399 ft | 400 kts | 69° |
| 2026-05-06 01:10 | 41.67247 | -71.60719 | 17155 ft | 391 kts | 69° |
| 2026-05-06 01:11 | 41.68233 | -71.57380 | 16901 ft | 381 kts | 69° |